Archival Weather

Tokyo Intl

Tokyo, Japan (RJTT)

Report from: Saturday, April 1, 2023 12:30 PM JST
Current time: Sunday, July 14, 2024 8:17 PM JST

Current weather – Weather history – Daily summaries
Weather forecast

Temperature19.0°C (66.2°F)
Dew point14.0°C (57.2°F)
Winds 5 kts (2.6 m/s, 5.8 mph) North-Northeast (30°)
Visibility6.2 mi. (10 km)
Clouds Few clouds 3,000 ft. (914 m)
Altimeter29.97 in.Hg (1015 mB)
Relative humidity73 %
Density altitude632 ft. (193 m)
Flight conditions Visual Meteorological Conditions
Raw dataRJTT 010330Z 03005KT 9999 FEW030 19/14 Q1015 BECMG 08008KT RMK 1CU030 A2999
An error has occurred. This application may no longer respond until reloaded. Reload 🗙